createdAt,value
2023-03-15T00:02:55.620Z,3.73
2023-03-15T00:07:58.945Z,2.30
2023-03-15T00:13:01.469Z,3.93
2023-03-15T00:18:04.089Z,6.80
2023-03-15T00:23:06.685Z,2.67
2023-03-15T00:28:09.333Z,6.80
2023-03-15T00:33:13.999Z,4.40
2023-03-15T00:38:16.598Z,8.27
2023-03-15T00:43:19.204Z,7.03
2023-03-15T00:48:21.795Z,3.37
2023-03-15T00:53:24.280Z,2.67
2023-03-15T00:58:27.613Z,5.50
2023-03-15T01:03:30.151Z,3.60
2023-03-15T01:08:32.744Z,3.77
2023-03-15T01:13:36.151Z,2.93
2023-03-15T01:18:39.138Z,6.43
2023-03-15T01:23:42.305Z,4.00
2023-03-15T01:28:45.205Z,3.27
2023-03-15T01:33:48.052Z,3.97
2023-03-15T01:38:51.159Z,4.60
2023-03-15T01:43:58.556Z,2.73
2023-03-15T01:49:25.046Z,3.80
2023-03-15T01:55:06.207Z,4.97
2023-03-15T02:00:18.583Z,6.27
2023-03-15T02:05:36.944Z,3.80
2023-03-15T02:10:49.545Z,4.67
2023-03-15T02:15:53.987Z,3.50
2023-03-15T02:21:22.456Z,5.83
2023-03-15T02:26:34.889Z,4.13
2023-03-15T02:31:38.333Z,4.40
2023-03-15T02:36:41.248Z,5.63
2023-03-15T02:41:48.945Z,4.13
2023-03-15T02:46:53.661Z,7.00
2023-03-15T02:51:57.019Z,7.33
2023-03-15T02:56:59.685Z,4.80
2023-03-15T03:02:02.794Z,5.13
2023-03-15T03:07:06.234Z,4.27
2023-03-15T03:12:18.219Z,4.27
2023-03-15T03:17:20.889Z,3.90
2023-03-15T03:22:24.701Z,4.67
2023-03-15T03:27:27.232Z,3.17
2023-03-15T03:32:30.248Z,5.73
2023-03-15T03:37:35.947Z,3.37
2023-03-15T03:42:47.379Z,3.27
2023-03-15T03:47:53.346Z,5.10
2023-03-15T03:52:56.117Z,3.50
2023-03-15T03:58:03.537Z,3.97
2023-03-15T04:03:16.775Z,3.87
2023-03-15T04:08:25.586Z,5.83
2023-03-15T04:13:28.947Z,2.90
2023-03-15T04:18:33.880Z,4.27
2023-03-15T04:23:37.662Z,3.23
2023-03-15T04:28:51.156Z,5.97
2023-03-15T04:34:09.112Z,2.20
2023-03-15T04:39:30.910Z,1.83
2023-03-15T04:44:45.944Z,5.03
2023-03-15T04:50:07.380Z,4.27
2023-03-15T04:55:32.400Z,5.17
2023-03-15T05:00:53.334Z,5.67
2023-03-15T05:06:22.709Z,4.83
2023-03-15T05:11:43.790Z,4.23
2023-03-15T05:17:04.902Z,7.73
2023-03-15T05:22:28.410Z,9.20
2023-03-15T05:27:52.901Z,3.23
2023-03-15T05:33:21.253Z,5.90
2023-03-15T05:38:46.295Z,6.83
2023-03-15T05:44:11.546Z,2.70
2023-03-15T05:49:36.604Z,4.90
2023-03-15T05:54:54.292Z,5.90
2023-03-15T06:00:20.756Z,6.10
2023-03-15T06:05:27.734Z,4.43
2023-03-15T06:10:32.012Z,8.10
2023-03-15T06:15:40.225Z,8.87
2023-03-15T06:20:44.674Z,6.37
2023-03-15T06:25:50.456Z,4.30
2023-03-15T06:30:54.913Z,5.47
2023-03-15T06:36:04.306Z,6.17
2023-03-15T06:41:07.731Z,4.97
2023-03-15T06:46:12.104Z,7.50
2023-03-15T06:51:14.785Z,8.97
2023-03-15T06:56:17.561Z,8.40
2023-03-15T07:01:20.168Z,6.07
2023-03-15T07:06:23.023Z,4.87
2023-03-15T07:11:25.631Z,4.93
2023-03-15T07:16:28.270Z,3.73
2023-03-15T07:21:30.853Z,3.73
2023-03-15T07:26:33.506Z,6.67
2023-03-15T07:31:36.032Z,1.73
2023-03-15T07:36:38.692Z,5.57
2023-03-15T07:41:41.236Z,5.33
2023-03-15T07:46:56.157Z,1.67
2023-03-15T07:51:58.804Z,7.17
2023-03-15T07:57:01.715Z,8.40
2023-03-15T08:02:04.702Z,3.70
2023-03-15T08:07:07.723Z,4.43
2023-03-15T08:12:10.628Z,3.23
2023-03-15T08:17:16.257Z,6.60
2023-03-15T08:22:19.169Z,5.30
2023-03-15T08:27:21.788Z,5.73
2023-03-15T08:32:24.383Z,6.07
2023-03-15T08:37:27.092Z,4.43
2023-03-15T08:42:29.666Z,4.33
2023-03-15T08:47:32.223Z,5.17
2023-03-15T08:52:35.185Z,7.87
2023-03-15T08:57:37.761Z,8.50
2023-03-15T09:02:40.382Z,10.00
2023-03-15T09:07:43.694Z,9.37
2023-03-15T09:12:49.258Z,7.97
2023-03-15T09:17:52.036Z,4.63
2023-03-15T09:22:56.739Z,3.93
2023-03-15T09:27:59.323Z,2.93
2023-03-15T09:33:02.007Z,2.93
2023-03-15T09:38:04.547Z,1.33
2023-03-15T09:43:07.041Z,3.77
2023-03-15T09:48:28.045Z,0.90
2023-03-15T09:54:06.030Z,2.37
2023-03-15T09:59:10.476Z,2.97
2023-03-15T10:04:16.870Z,5.33
2023-03-15T10:09:23.029Z,2.20
2023-03-15T10:14:28.403Z,2.97
2023-03-15T10:19:46.719Z,4.23
2023-03-15T10:24:59.345Z,5.20
2023-03-15T10:30:13.192Z,3.27
2023-03-15T10:35:18.285Z,3.13
2023-03-15T10:40:59.935Z,5.90
2023-03-15T10:46:08.647Z,3.10
2023-03-15T10:51:23.499Z,2.73
2023-03-15T10:56:32.367Z,4.37
2023-03-15T11:01:35.014Z,3.20
2023-03-15T11:06:44.534Z,3.70
2023-03-15T11:12:00.050Z,14.37
2023-03-15T11:17:05.448Z,3.07
2023-03-15T11:22:12.723Z,3.23
2023-03-15T11:27:19.102Z,3.17
2023-03-15T11:32:25.137Z,4.70
2023-03-15T11:38:03.135Z,4.30
2023-03-15T11:43:51.976Z,2.87
2023-03-15T11:49:01.390Z,2.87
2023-03-15T11:54:17.358Z,2.40
2023-03-15T11:59:33.751Z,2.60
2023-03-15T12:04:36.448Z,1.53
2023-03-15T12:09:45.870Z,7.30
2023-03-15T12:14:48.494Z,7.97
2023-03-15T12:20:20.225Z,2.97
2023-03-15T12:25:33.863Z,1.10
2023-03-15T12:30:57.117Z,2.23
2023-03-15T12:36:16.397Z,2.90
2023-03-15T12:41:50.080Z,3.37
2023-03-15T12:46:52.631Z,4.33
2023-03-15T12:51:59.826Z,1.60
2023-03-15T12:57:05.050Z,3.17
2023-03-15T13:02:41.721Z,1.80
2023-03-15T13:07:58.595Z,2.67
2023-03-15T13:13:08.344Z,1.57
2023-03-15T13:18:35.028Z,4.67
2023-03-15T13:23:37.867Z,4.57
2023-03-15T13:28:58.386Z,6.70
2023-03-15T13:34:24.458Z,4.90
2023-03-15T13:39:30.630Z,3.07
2023-03-15T13:44:33.951Z,1.90
2023-03-15T13:49:36.453Z,6.00
2023-03-15T13:54:40.234Z,4.47
2023-03-15T14:00:02.047Z,4.30
2023-03-15T14:05:11.096Z,4.70
2023-03-15T14:10:34.639Z,3.47
2023-03-15T14:15:43.094Z,1.43
2023-03-15T14:20:47.976Z,1.93
2023-03-15T14:25:55.756Z,2.20
2023-03-15T14:30:59.861Z,3.30
2023-03-15T14:36:05.582Z,5.50
2023-03-15T14:41:33.313Z,7.67
2023-03-15T14:46:36.411Z,2.17
2023-03-15T14:51:38.907Z,3.17
2023-03-15T14:56:44.373Z,5.40
2023-03-15T15:01:51.709Z,2.47
2023-03-15T15:06:56.009Z,5.00
2023-03-15T15:11:58.698Z,6.67
2023-03-15T15:17:01.312Z,4.83
2023-03-15T15:22:04.080Z,3.00
2023-03-15T15:27:09.597Z,6.20
2023-03-15T15:32:12.058Z,3.97
2023-03-15T15:37:15.524Z,5.23
2023-03-15T15:42:18.240Z,7.20
2023-03-15T15:47:20.964Z,9.33
2023-03-15T15:52:23.430Z,4.37
2023-03-15T15:57:26.651Z,3.10
2023-03-15T16:02:29.428Z,3.47
2023-03-15T16:07:32.052Z,7.90
2023-03-15T16:12:35.695Z,6.40
2023-03-15T16:17:38.829Z,6.13
2023-03-15T16:22:45.564Z,12.03
2023-03-15T16:27:48.139Z,12.50
2023-03-15T16:32:55.231Z,10.20
2023-03-15T16:37:59.035Z,7.70
2023-03-15T16:43:01.768Z,7.57
2023-03-15T16:48:04.782Z,7.83
2023-03-15T16:53:10.151Z,8.43
2023-03-15T16:58:21.949Z,8.40
2023-03-15T17:03:25.791Z,8.03
2023-03-15T17:08:28.526Z,16.13
2023-03-15T17:13:32.910Z,18.35
2023-03-15T17:18:35.695Z,16.90
2023-03-15T17:23:38.399Z,11.17
2023-03-15T17:34:02.561Z,37.70
2023-03-15T17:39:09.772Z,44.70
2023-03-15T17:44:12.343Z,49.90
2023-03-15T17:49:16.325Z,42.33
2023-03-15T17:54:20.821Z,33.67
2023-03-15T17:59:23.487Z,33.23
2023-03-15T18:04:26.083Z,26.90
2023-03-15T18:09:28.846Z,26.50
2023-03-15T18:14:37.271Z,30.93
2023-03-15T18:19:39.923Z,33.43
2023-03-15T18:24:42.470Z,51.33
2023-03-15T18:29:44.966Z,42.57
2023-03-15T18:34:47.552Z,50.67
2023-03-15T18:39:50.195Z,41.03
2023-03-15T18:44:52.677Z,39.50
2023-03-15T18:50:00.999Z,54.87
2023-03-15T18:55:08.653Z,43.90
2023-03-15T19:00:14.395Z,37.97
2023-03-15T19:05:17.717Z,61.40
2023-03-15T19:10:21.660Z,39.13
2023-03-15T19:15:24.389Z,47.20
2023-03-15T19:20:26.995Z,61.40
2023-03-15T19:25:29.590Z,44.73
2023-03-15T19:30:32.681Z,50.47
2023-03-15T19:35:35.508Z,54.57
2023-03-15T19:40:38.874Z,55.70
2023-03-15T19:45:41.819Z,50.00
2023-03-15T19:50:44.518Z,46.83
2023-03-15T19:55:47.091Z,54.83
2023-03-15T20:00:50.514Z,64.47
2023-03-15T20:05:53.093Z,66.80
2023-03-15T20:11:04.033Z,61.43
2023-03-15T20:16:07.394Z,59.50
2023-03-15T20:21:10.303Z,71.63
2023-03-15T20:26:15.796Z,74.53
2023-03-15T20:31:19.529Z,73.13
2023-03-15T20:36:22.399Z,72.97
2023-03-15T20:41:24.923Z,81.57
2023-03-15T20:46:27.677Z,87.23
2023-03-15T20:51:30.330Z,95.10
2023-03-15T20:56:34.290Z,88.03
2023-03-15T21:01:36.874Z,89.00
2023-03-15T21:06:39.400Z,77.67
2023-03-15T21:11:42.902Z,71.70
2023-03-15T21:16:45.455Z,60.30
2023-03-15T21:21:48.176Z,62.37
2023-03-15T21:26:54.731Z,68.47
2023-03-15T21:31:58.622Z,78.40
2023-03-15T21:37:02.511Z,140.33
2023-03-15T21:42:05.702Z,103.13
2023-03-15T21:47:08.298Z,108.87
2023-03-15T21:52:12.433Z,143.43
2023-03-15T21:57:15.017Z,141.63
2023-03-15T22:02:17.798Z,150.60
2023-03-15T22:07:20.494Z,81.73
2023-03-15T22:12:25.404Z,80.47
2023-03-15T22:17:29.276Z,96.50
2023-03-15T22:22:31.904Z,97.83
2023-03-15T22:27:34.495Z,93.13
2023-03-15T22:32:37.011Z,85.80
2023-03-15T22:37:39.718Z,88.80
2023-03-15T22:42:43.386Z,79.50
2023-03-15T22:47:46.345Z,83.23
2023-03-15T22:52:51.819Z,51.70
2023-03-15T22:57:54.561Z,51.00
2023-03-15T23:02:57.115Z,53.40
2023-03-15T23:07:59.646Z,37.70
2023-03-15T23:13:03.776Z,38.50
2023-03-15T23:18:06.623Z,33.37
2023-03-15T23:23:09.271Z,36.67
2023-03-15T23:28:11.846Z,36.50
2023-03-15T23:33:14.348Z,39.87
2023-03-15T23:38:16.899Z,34.87
2023-03-15T23:43:19.350Z,33.47
2023-03-15T23:48:22.286Z,44.73
2023-03-15T23:53:26.000Z,48.30
2023-03-15T23:58:29.328Z,39.60
